sensor_id;sensor_type;location;lat;lon;timestamp;temperature;humidity
56240;DHT22;42154;51.992;5.896;2023-11-21T00:00:14;8.90;99.90
56240;DHT22;42154;51.992;5.896;2023-11-21T00:02:40;8.90;99.90
56240;DHT22;42154;51.992;5.896;2023-11-21T00:05:10;8.90;99.90
56240;DHT22;42154;51.992;5.896;2023-11-21T00:07:37;8.80;99.90
56240;DHT22;42154;51.992;5.896;2023-11-21T00:10:03;8.80;99.90
56240;DHT22;42154;51.992;5.896;2023-11-21T00:12:31;8.80;99.90
56240;DHT22;42154;51.992;5.896;2023-11-21T00:14:57;8.80;99.90
56240;DHT22;42154;51.992;5.896;2023-11-21T00:17:23;8.70;99.90
56240;DHT22;42154;51.992;5.896;2023-11-21T00:19:50;8.70;99.90
56240;DHT22;42154;51.992;5.896;2023-11-21T00:22:18;8.70;99.90
56240;DHT22;42154;51.992;5.896;2023-11-21T00:24:44;8.70;99.90
56240;DHT22;42154;51.992;5.896;2023-11-21T00:27:10;8.70;99.90
56240;DHT22;42154;51.992;5.896;2023-11-21T00:29:36;8.60;99.90
56240;DHT22;42154;51.992;5.896;2023-11-21T00:32:01;8.70;99.90
56240;DHT22;42154;51.992;5.896;2023-11-21T00:34:27;8.60;99.90
56240;DHT22;42154;51.992;5.896;2023-11-21T00:36:53;8.60;99.90
56240;DHT22;42154;51.992;5.896;2023-11-21T00:39:20;8.60;99.90
56240;DHT22;42154;51.992;5.896;2023-11-21T00:41:45;8.60;99.90
56240;DHT22;42154;51.992;5.896;2023-11-21T00:44:12;8.60;99.90
56240;DHT22;42154;51.992;5.896;2023-11-21T00:46:38;8.60;99.90
56240;DHT22;42154;51.992;5.896;2023-11-21T00:49:03;8.70;99.90
56240;DHT22;42154;51.992;5.896;2023-11-21T00:51:33;8.60;99.90
56240;DHT22;42154;51.992;5.896;2023-11-21T00:53:59;8.60;99.90
56240;DHT22;42154;51.992;5.896;2023-11-21T00:56:25;8.60;99.90
56240;DHT22;42154;51.992;5.896;2023-11-21T00:58:50;8.60;99.90
56240;DHT22;42154;51.992;5.896;2023-11-21T01:01:21;8.60;99.90
56240;DHT22;42154;51.992;5.896;2023-11-21T01:03:50;8.60;99.90
56240;DHT22;42154;51.992;5.896;2023-11-21T01:06:16;8.60;99.90
56240;DHT22;42154;51.992;5.896;2023-11-21T01:08:43;8.60;99.90
56240;DHT22;42154;51.992;5.896;2023-11-21T01:11:10;8.70;99.90
56240;DHT22;42154;51.992;5.896;2023-11-21T01:13:38;8.70;99.90
56240;DHT22;42154;51.992;5.896;2023-11-21T01:16:05;8.70;99.90
56240;DHT22;42154;51.992;5.896;2023-11-21T01:18:32;8.70;99.90
56240;DHT22;42154;51.992;5.896;2023-11-21T01:20:58;8.70;99.90
56240;DHT22;42154;51.992;5.896;2023-11-21T01:23:26;8.70;99.90
56240;DHT22;42154;51.992;5.896;2023-11-21T01:25:53;8.70;99.90
56240;DHT22;42154;51.992;5.896;2023-11-21T01:28:18;8.70;99.90
56240;DHT22;42154;51.992;5.896;2023-11-21T01:30:45;8.80;99.90
56240;DHT22;42154;51.992;5.896;2023-11-21T01:33:11;8.70;99.90
56240;DHT22;42154;51.992;5.896;2023-11-21T01:35:37;8.70;99.90
56240;DHT22;42154;51.992;5.896;2023-11-21T01:38:03;8.80;99.90
56240;DHT22;42154;51.992;5.896;2023-11-21T01:40:29;8.80;99.90
56240;DHT22;42154;51.992;5.896;2023-11-21T01:42:56;8.80;99.90
56240;DHT22;42154;51.992;5.896;2023-11-21T01:45:23;8.80;99.90
56240;DHT22;42154;51.992;5.896;2023-11-21T01:47:50;8.80;99.90
56240;DHT22;42154;51.992;5.896;2023-11-21T01:50:17;8.80;99.90
56240;DHT22;42154;51.992;5.896;2023-11-21T01:52:45;8.80;99.90
56240;DHT22;42154;51.992;5.896;2023-11-21T01:55:11;8.80;99.90
56240;DHT22;42154;51.992;5.896;2023-11-21T01:57:39;8.90;99.90
56240;DHT22;42154;51.992;5.896;2023-11-21T02:00:06;8.90;99.90
56240;DHT22;42154;51.992;5.896;2023-11-21T02:02:44;8.90;99.90
56240;DHT22;42154;51.992;5.896;2023-11-21T02:05:14;8.90;99.90
56240;DHT22;42154;51.992;5.896;2023-11-21T02:07:41;8.90;99.90
56240;DHT22;42154;51.992;5.896;2023-11-21T02:10:09;8.90;99.90
56240;DHT22;42154;51.992;5.896;2023-11-21T02:12:35;8.90;99.90
56240;DHT22;42154;51.992;5.896;2023-11-21T02:15:05;8.80;99.90
56240;DHT22;42154;51.992;5.896;2023-11-21T02:17:38;8.90;99.90
56240;DHT22;42154;51.992;5.896;2023-11-21T02:20:04;8.80;99.90
56240;DHT22;42154;51.992;5.896;2023-11-21T02:22:34;8.80;99.90
56240;DHT22;42154;51.992;5.896;2023-11-21T02:25:03;8.80;99.90
56240;DHT22;42154;51.992;5.896;2023-11-21T02:27:29;8.80;99.90
56240;DHT22;42154;51.992;5.896;2023-11-21T02:29:55;8.80;99.90
56240;DHT22;42154;51.992;5.896;2023-11-21T02:32:20;8.80;99.90
56240;DHT22;42154;51.992;5.896;2023-11-21T02:34:48;8.80;99.90
56240;DHT22;42154;51.992;5.896;2023-11-21T02:37:15;8.80;99.90
56240;DHT22;42154;51.992;5.896;2023-11-21T02:39:41;8.90;99.90
56240;DHT22;42154;51.992;5.896;2023-11-21T02:42:07;8.90;99.90
56240;DHT22;42154;51.992;5.896;2023-11-21T02:44:33;8.90;99.90
56240;DHT22;42154;51.992;5.896;2023-11-21T02:46:59;8.90;99.90
56240;DHT22;42154;51.992;5.896;2023-11-21T02:49:25;8.90;99.90
56240;DHT22;42154;51.992;5.896;2023-11-21T02:51:54;9.00;99.90
56240;DHT22;42154;51.992;5.896;2023-11-21T02:54:21;9.00;99.90
56240;DHT22;42154;51.992;5.896;2023-11-21T02:56:48;9.00;99.90
56240;DHT22;42154;51.992;5.896;2023-11-21T02:59:15;9.00;99.90
56240;DHT22;42154;51.992;5.896;2023-11-21T03:01:41;9.00;99.90
56240;DHT22;42154;51.992;5.896;2023-11-21T03:04:07;9.00;99.90
56240;DHT22;42154;51.992;5.896;2023-11-21T03:06:33;9.10;99.90
56240;DHT22;42154;51.992;5.896;2023-11-21T03:08:59;9.10;99.90
56240;DHT22;42154;51.992;5.896;2023-11-21T03:11:25;9.10;99.90
56240;DHT22;42154;51.992;5.896;2023-11-21T03:13:51;9.10;99.90
56240;DHT22;42154;51.992;5.896;2023-11-21T03:16:18;9.10;99.90
56240;DHT22;42154;51.992;5.896;2023-11-21T03:18:45;9.10;99.90
56240;DHT22;42154;51.992;5.896;2023-11-21T03:21:12;9.00;99.90
56240;DHT22;42154;51.992;5.896;2023-11-21T03:23:38;9.00;99.90
56240;DHT22;42154;51.992;5.896;2023-11-21T03:26:04;9.00;99.90
56240;DHT22;42154;51.992;5.896;2023-11-21T03:28:30;9.10;99.90
56240;DHT22;42154;51.992;5.896;2023-11-21T03:30:56;9.10;99.90
56240;DHT22;42154;51.992;5.896;2023-11-21T03:33:23;9.10;99.90
56240;DHT22;42154;51.992;5.896;2023-11-21T03:35:49;9.10;99.90
56240;DHT22;42154;51.992;5.896;2023-11-21T03:38:15;9.10;99.90
56240;DHT22;42154;51.992;5.896;2023-11-21T03:40:41;9.10;99.90
56240;DHT22;42154;51.992;5.896;2023-11-21T03:43:07;9.20;99.90
56240;DHT22;42154;51.992;5.896;2023-11-21T03:45:33;9.10;99.90
56240;DHT22;42154;51.992;5.896;2023-11-21T03:47:59;9.10;99.90
56240;DHT22;42154;51.992;5.896;2023-11-21T03:50:29;9.10;99.90
56240;DHT22;42154;51.992;5.896;2023-11-21T03:52:55;9.10;99.90
56240;DHT22;42154;51.992;5.896;2023-11-21T03:55:21;9.10;99.90
56240;DHT22;42154;51.992;5.896;2023-11-21T03:57:46;9.10;99.90
56240;DHT22;42154;51.992;5.896;2023-11-21T04:00:12;9.10;99.90
56240;DHT22;42154;51.992;5.896;2023-11-21T04:02:38;9.20;99.90
56240;DHT22;42154;51.992;5.896;2023-11-21T04:05:05;9.20;99.90
56240;DHT22;42154;51.992;5.896;2023-11-21T04:07:32;9.20;99.90
56240;DHT22;42154;51.992;5.896;2023-11-21T04:09:59;9.20;99.90
56240;DHT22;42154;51.992;5.896;2023-11-21T04:12:25;9.20;99.90
56240;DHT22;42154;51.992;5.896;2023-11-21T04:14:50;9.20;99.90
56240;DHT22;42154;51.992;5.896;2023-11-21T04:17:18;9.20;99.90
56240;DHT22;42154;51.992;5.896;2023-11-21T04:19:45;9.20;99.90
56240;DHT22;42154;51.992;5.896;2023-11-21T04:22:11;9.20;99.90
56240;DHT22;42154;51.992;5.896;2023-11-21T04:24:37;9.20;99.90
56240;DHT22;42154;51.992;5.896;2023-11-21T04:27:03;9.20;99.90
56240;DHT22;42154;51.992;5.896;2023-11-21T04:29:29;9.20;99.90
56240;DHT22;42154;51.992;5.896;2023-11-21T04:31:55;9.30;99.90
56240;DHT22;42154;51.992;5.896;2023-11-21T04:34:21;9.30;99.90
56240;DHT22;42154;51.992;5.896;2023-11-21T04:36:47;9.30;99.90
56240;DHT22;42154;51.992;5.896;2023-11-21T04:39:12;9.30;99.90
56240;DHT22;42154;51.992;5.896;2023-11-21T04:41:38;9.30;99.90
56240;DHT22;42154;51.992;5.896;2023-11-21T04:44:06;9.40;99.90
56240;DHT22;42154;51.992;5.896;2023-11-21T04:46:31;9.30;99.90
56240;DHT22;42154;51.992;5.896;2023-11-21T04:48:58;9.30;99.90
56240;DHT22;42154;51.992;5.896;2023-11-21T04:51:24;9.30;99.90
56240;DHT22;42154;51.992;5.896;2023-11-21T04:53:50;9.40;99.90
56240;DHT22;42154;51.992;5.896;2023-11-21T04:56:15;9.30;99.90
56240;DHT22;42154;51.992;5.896;2023-11-21T04:58:44;9.30;99.90
56240;DHT22;42154;51.992;5.896;2023-11-21T05:01:09;9.30;99.90
56240;DHT22;42154;51.992;5.896;2023-11-21T05:03:35;9.30;99.90
56240;DHT22;42154;51.992;5.896;2023-11-21T05:06:01;9.30;99.90
56240;DHT22;42154;51.992;5.896;2023-11-21T05:08:27;9.30;99.90
56240;DHT22;42154;51.992;5.896;2023-11-21T05:10:52;9.30;99.90
56240;DHT22;42154;51.992;5.896;2023-11-21T05:13:20;9.30;99.90
56240;DHT22;42154;51.992;5.896;2023-11-21T05:15:45;9.40;99.90
56240;DHT22;42154;51.992;5.896;2023-11-21T05:18:11;9.30;99.90
56240;DHT22;42154;51.992;5.896;2023-11-21T05:20:39;9.30;99.90
56240;DHT22;42154;51.992;5.896;2023-11-21T05:23:06;9.30;99.90
56240;DHT22;42154;51.992;5.896;2023-11-21T05:25:33;9.30;99.90
56240;DHT22;42154;51.992;5.896;2023-11-21T05:27:59;9.30;99.90
56240;DHT22;42154;51.992;5.896;2023-11-21T05:30:27;9.30;99.90
56240;DHT22;42154;51.992;5.896;2023-11-21T05:32:53;9.30;99.90
56240;DHT22;42154;51.992;5.896;2023-11-21T05:35:19;9.40;99.90
56240;DHT22;42154;51.992;5.896;2023-11-21T05:37:45;9.30;99.90
56240;DHT22;42154;51.992;5.896;2023-11-21T05:40:11;9.40;99.90
56240;DHT22;42154;51.992;5.896;2023-11-21T05:42:39;9.40;99.90
56240;DHT22;42154;51.992;5.896;2023-11-21T05:45:06;9.40;99.90
56240;DHT22;42154;51.992;5.896;2023-11-21T05:47:46;9.40;99.90
56240;DHT22;42154;51.992;5.896;2023-11-21T05:50:14;9.40;99.90
56240;DHT22;42154;51.992;5.896;2023-11-21T05:52:41;9.30;99.90
56240;DHT22;42154;51.992;5.896;2023-11-21T05:55:08;9.40;99.90
56240;DHT22;42154;51.992;5.896;2023-11-21T05:57:35;9.30;99.90
56240;DHT22;42154;51.992;5.896;2023-11-21T06:00:07;9.30;99.90
56240;DHT22;42154;51.992;5.896;2023-11-21T06:02:53;9.30;99.90
56240;DHT22;42154;51.992;5.896;2023-11-21T06:05:21;9.30;99.90
56240;DHT22;42154;51.992;5.896;2023-11-21T06:07:48;9.30;99.90
56240;DHT22;42154;51.992;5.896;2023-11-21T06:10:15;9.40;99.90
56240;DHT22;42154;51.992;5.896;2023-11-21T06:12:43;9.30;99.90
56240;DHT22;42154;51.992;5.896;2023-11-21T06:15:09;9.40;99.90
56240;DHT22;42154;51.992;5.896;2023-11-21T06:17:40;9.40;99.90
56240;DHT22;42154;51.992;5.896;2023-11-21T06:20:07;9.40;99.90
56240;DHT22;42154;51.992;5.896;2023-11-21T06:22:43;9.40;99.90
56240;DHT22;42154;51.992;5.896;2023-11-21T06:25:09;9.40;99.90
56240;DHT22;42154;51.992;5.896;2023-11-21T06:27:44;9.40;99.90
56240;DHT22;42154;51.992;5.896;2023-11-21T06:30:11;9.40;99.90
56240;DHT22;42154;51.992;5.896;2023-11-21T06:32:38;9.40;99.90
56240;DHT22;42154;51.992;5.896;2023-11-21T06:35:05;9.40;99.90
56240;DHT22;42154;51.992;5.896;2023-11-21T06:37:32;9.40;99.90
56240;DHT22;42154;51.992;5.896;2023-11-21T06:39:58;9.40;99.90
56240;DHT22;42154;51.992;5.896;2023-11-21T06:42:25;9.50;99.90
56240;DHT22;42154;51.992;5.896;2023-11-21T06:44:51;9.50;99.90
56240;DHT22;42154;51.992;5.896;2023-11-21T06:47:20;9.50;99.90
56240;DHT22;42154;51.992;5.896;2023-11-21T06:49:46;9.50;99.90
56240;DHT22;42154;51.992;5.896;2023-11-21T06:52:15;9.50;99.90
56240;DHT22;42154;51.992;5.896;2023-11-21T06:54:41;9.40;99.90
56240;DHT22;42154;51.992;5.896;2023-11-21T06:57:06;9.50;99.90
56240;DHT22;42154;51.992;5.896;2023-11-21T06:59:33;9.50;99.90
56240;DHT22;42154;51.992;5.896;2023-11-21T07:01:59;9.50;99.90
56240;DHT22;42154;51.992;5.896;2023-11-21T07:04:24;9.50;99.90
56240;DHT22;42154;51.992;5.896;2023-11-21T07:06:56;9.50;99.90
56240;DHT22;42154;51.992;5.896;2023-11-21T07:09:22;9.50;99.90
56240;DHT22;42154;51.992;5.896;2023-11-21T07:11:48;9.50;99.90
56240;DHT22;42154;51.992;5.896;2023-11-21T07:14:15;9.50;99.90
56240;DHT22;42154;51.992;5.896;2023-11-21T07:16:41;9.60;99.90
56240;DHT22;42154;51.992;5.896;2023-11-21T07:19:07;9.60;99.90
56240;DHT22;42154;51.992;5.896;2023-11-21T07:21:36;9.50;99.90
56240;DHT22;42154;51.992;5.896;2023-11-21T07:24:03;9.60;99.90
56240;DHT22;42154;51.992;5.896;2023-11-21T07:26:29;9.60;99.90
56240;DHT22;42154;51.992;5.896;2023-11-21T07:28:55;9.60;99.90
56240;DHT22;42154;51.992;5.896;2023-11-21T07:31:22;9.60;99.90
56240;DHT22;42154;51.992;5.896;2023-11-21T07:33:50;9.70;99.90
56240;DHT22;42154;51.992;5.896;2023-11-21T07:36:16;9.70;99.90
56240;DHT22;42154;51.992;5.896;2023-11-21T07:38:44;9.70;99.90
56240;DHT22;42154;51.992;5.896;2023-11-21T07:41:13;9.70;99.90
56240;DHT22;42154;51.992;5.896;2023-11-21T07:43:46;9.70;99.90
56240;DHT22;42154;51.992;5.896;2023-11-21T07:46:12;9.70;99.90
56240;DHT22;42154;51.992;5.896;2023-11-21T07:48:39;9.70;99.90
56240;DHT22;42154;51.992;5.896;2023-11-21T07:51:05;9.80;99.90
56240;DHT22;42154;51.992;5.896;2023-11-21T07:53:32;9.80;99.90
56240;DHT22;42154;51.992;5.896;2023-11-21T07:56:02;9.80;99.90
56240;DHT22;42154;51.992;5.896;2023-11-21T07:58:28;9.80;99.90
56240;DHT22;42154;51.992;5.896;2023-11-21T08:00:54;9.80;99.90
56240;DHT22;42154;51.992;5.896;2023-11-21T08:03:20;9.90;99.90
56240;DHT22;42154;51.992;5.896;2023-11-21T08:05:46;9.90;99.90
56240;DHT22;42154;51.992;5.896;2023-11-21T08:08:12;9.90;99.90
56240;DHT22;42154;51.992;5.896;2023-11-21T08:10:38;9.90;99.90
56240;DHT22;42154;51.992;5.896;2023-11-21T08:13:07;9.90;99.90
56240;DHT22;42154;51.992;5.896;2023-11-21T08:15:34;9.90;99.90
56240;DHT22;42154;51.992;5.896;2023-11-21T08:18:02;9.90;99.90
56240;DHT22;42154;51.992;5.896;2023-11-21T08:20:29;10.00;99.90
56240;DHT22;42154;51.992;5.896;2023-11-21T08:22:54;10.00;99.90
56240;DHT22;42154;51.992;5.896;2023-11-21T08:25:22;10.00;99.90
56240;DHT22;42154;51.992;5.896;2023-11-21T08:27:48;10.00;99.90
56240;DHT22;42154;51.992;5.896;2023-11-21T08:30:14;9.90;99.90
56240;DHT22;42154;51.992;5.896;2023-11-21T08:32:42;10.10;99.90
56240;DHT22;42154;51.992;5.896;2023-11-21T08:35:08;10.10;99.90
56240;DHT22;42154;51.992;5.896;2023-11-21T08:37:34;10.10;99.90
56240;DHT22;42154;51.992;5.896;2023-11-21T08:40:04;10.10;99.90
56240;DHT22;42154;51.992;5.896;2023-11-21T08:42:34;10.10;99.90
56240;DHT22;42154;51.992;5.896;2023-11-21T08:44:59;10.10;99.90
56240;DHT22;42154;51.992;5.896;2023-11-21T08:47:26;10.10;99.90
56240;DHT22;42154;51.992;5.896;2023-11-21T08:49:52;10.20;99.90
56240;DHT22;42154;51.992;5.896;2023-11-21T08:52:19;10.20;99.90
56240;DHT22;42154;51.992;5.896;2023-11-21T08:54:51;10.20;99.90
56240;DHT22;42154;51.992;5.896;2023-11-21T08:57:25;10.30;99.90
56240;DHT22;42154;51.992;5.896;2023-11-21T08:59:51;10.30;99.90
56240;DHT22;42154;51.992;5.896;2023-11-21T09:02:21;10.30;99.90
56240;DHT22;42154;51.992;5.896;2023-11-21T09:04:50;10.30;99.90
56240;DHT22;42154;51.992;5.896;2023-11-21T09:07:18;10.30;99.90
56240;DHT22;42154;51.992;5.896;2023-11-21T09:09:46;10.30;99.90
56240;DHT22;42154;51.992;5.896;2023-11-21T09:12:13;10.30;99.90
56240;DHT22;42154;51.992;5.896;2023-11-21T09:14:39;10.30;99.90
56240;DHT22;42154;51.992;5.896;2023-11-21T09:17:05;10.40;99.90
56240;DHT22;42154;51.992;5.896;2023-11-21T09:19:42;10.40;99.90
56240;DHT22;42154;51.992;5.896;2023-11-21T09:22:10;10.40;99.90
56240;DHT22;42154;51.992;5.896;2023-11-21T09:24:36;10.40;99.90
56240;DHT22;42154;51.992;5.896;2023-11-21T09:27:03;10.40;99.90
56240;DHT22;42154;51.992;5.896;2023-11-21T09:29:31;10.40;99.90
56240;DHT22;42154;51.992;5.896;2023-11-21T09:31:57;10.40;99.90
56240;DHT22;42154;51.992;5.896;2023-11-21T09:34:25;10.40;99.90
56240;DHT22;42154;51.992;5.896;2023-11-21T09:36:51;10.40;99.90
56240;DHT22;42154;51.992;5.896;2023-11-21T09:39:17;10.40;99.90
56240;DHT22;42154;51.992;5.896;2023-11-21T09:41:50;10.40;99.90
56240;DHT22;42154;51.992;5.896;2023-11-21T09:44:18;10.60;99.90
56240;DHT22;42154;51.992;5.896;2023-11-21T09:46:44;10.60;99.90
56240;DHT22;42154;51.992;5.896;2023-11-21T09:49:13;10.50;99.90
56240;DHT22;42154;51.992;5.896;2023-11-21T09:51:43;10.60;99.90
56240;DHT22;42154;51.992;5.896;2023-11-21T09:54:13;10.60;99.90
56240;DHT22;42154;51.992;5.896;2023-11-21T09:56:42;10.60;99.90
56240;DHT22;42154;51.992;5.896;2023-11-21T09:59:12;10.60;99.90
56240;DHT22;42154;51.992;5.896;2023-11-21T10:01:38;10.70;99.90
56240;DHT22;42154;51.992;5.896;2023-11-21T10:04:06;10.70;99.90
56240;DHT22;42154;51.992;5.896;2023-11-21T10:06:41;10.80;99.90
56240;DHT22;42154;51.992;5.896;2023-11-21T10:09:10;11.00;99.90
56240;DHT22;42154;51.992;5.896;2023-11-21T10:11:41;11.10;99.90
56240;DHT22;42154;51.992;5.896;2023-11-21T10:14:10;11.20;99.90
56240;DHT22;42154;51.992;5.896;2023-11-21T10:16:38;11.30;99.90
56240;DHT22;42154;51.992;5.896;2023-11-21T10:19:04;11.30;99.90
56240;DHT22;42154;51.992;5.896;2023-11-21T10:21:34;11.10;99.90
56240;DHT22;42154;51.992;5.896;2023-11-21T10:24:00;11.20;99.90
56240;DHT22;42154;51.992;5.896;2023-11-21T10:26:27;11.20;99.90
56240;DHT22;42154;51.992;5.896;2023-11-21T10:31:24;11.20;99.90
56240;DHT22;42154;51.992;5.896;2023-11-21T10:33:50;11.20;99.90
56240;DHT22;42154;51.992;5.896;2023-11-21T10:36:27;11.30;99.90
56240;DHT22;42154;51.992;5.896;2023-11-21T10:38:53;11.30;99.90
56240;DHT22;42154;51.992;5.896;2023-11-21T10:41:20;11.30;99.90
56240;DHT22;42154;51.992;5.896;2023-11-21T10:43:46;11.30;99.90
56240;DHT22;42154;51.992;5.896;2023-11-21T10:46:13;11.30;99.90
56240;DHT22;42154;51.992;5.896;2023-11-21T10:48:41;11.40;99.90
56240;DHT22;42154;51.992;5.896;2023-11-21T10:51:11;11.40;99.90
56240;DHT22;42154;51.992;5.896;2023-11-21T10:53:40;11.40;99.90
56240;DHT22;42154;51.992;5.896;2023-11-21T10:56:09;11.30;99.90
56240;DHT22;42154;51.992;5.896;2023-11-21T10:58:43;11.30;99.90
56240;DHT22;42154;51.992;5.896;2023-11-21T11:01:09;11.20;99.90
56240;DHT22;42154;51.992;5.896;2023-11-21T11:03:41;11.20;99.90
56240;DHT22;42154;51.992;5.896;2023-11-21T11:06:08;11.20;99.90
56240;DHT22;42154;51.992;5.896;2023-11-21T11:08:40;11.20;99.90
56240;DHT22;42154;51.992;5.896;2023-11-21T11:11:07;11.20;99.90
56240;DHT22;42154;51.992;5.896;2023-11-21T11:13:33;11.20;99.90
56240;DHT22;42154;51.992;5.896;2023-11-21T11:16:00;11.20;99.90
56240;DHT22;42154;51.992;5.896;2023-11-21T11:18:28;11.20;99.90
56240;DHT22;42154;51.992;5.896;2023-11-21T11:21:07;11.10;99.90
56240;DHT22;42154;51.992;5.896;2023-11-21T11:24:08;11.10;99.90
56240;DHT22;42154;51.992;5.896;2023-11-21T11:32:23;11.10;99.90
56240;DHT22;42154;51.992;5.896;2023-11-21T11:35:01;11.00;99.90
56240;DHT22;42154;51.992;5.896;2023-11-21T11:37:29;11.00;99.90
56240;DHT22;42154;51.992;5.896;2023-11-21T11:39:55;10.90;99.90
56240;DHT22;42154;51.992;5.896;2023-11-21T11:42:22;11.00;99.90
56240;DHT22;42154;51.992;5.896;2023-11-21T11:44:50;10.90;99.90
56240;DHT22;42154;51.992;5.896;2023-11-21T11:47:28;10.90;99.90
56240;DHT22;42154;51.992;5.896;2023-11-21T11:50:04;11.00;99.90
56240;DHT22;42154;51.992;5.896;2023-11-21T11:52:44;10.90;99.90
56240;DHT22;42154;51.992;5.896;2023-11-21T11:55:14;11.00;99.90
56240;DHT22;42154;51.992;5.896;2023-11-21T11:57:47;11.00;99.90
56240;DHT22;42154;51.992;5.896;2023-11-21T12:02:59;11.20;99.90
56240;DHT22;42154;51.992;5.896;2023-11-21T12:05:29;11.20;99.90
56240;DHT22;42154;51.992;5.896;2023-11-21T12:08:01;11.20;99.90
56240;DHT22;42154;51.992;5.896;2023-11-21T12:10:33;11.20;99.90
56240;DHT22;42154;51.992;5.896;2023-11-21T12:13:02;11.30;99.90
56240;DHT22;42154;51.992;5.896;2023-11-21T12:15:28;11.20;99.90
56240;DHT22;42154;51.992;5.896;2023-11-21T12:17:56;11.20;99.90
56240;DHT22;42154;51.992;5.896;2023-11-21T12:20:23;11.20;99.90
56240;DHT22;42154;51.992;5.896;2023-11-21T12:22:51;11.10;99.90
56240;DHT22;42154;51.992;5.896;2023-11-21T12:25:25;11.20;99.90
56240;DHT22;42154;51.992;5.896;2023-11-21T12:27:54;11.10;99.90
56240;DHT22;42154;51.992;5.896;2023-11-21T12:30:28;11.00;99.90
56240;DHT22;42154;51.992;5.896;2023-11-21T12:32:57;11.00;99.90
56240;DHT22;42154;51.992;5.896;2023-11-21T12:35:27;11.00;99.90
56240;DHT22;42154;51.992;5.896;2023-11-21T12:37:55;11.00;99.90
56240;DHT22;42154;51.992;5.896;2023-11-21T12:40:23;11.00;99.90
56240;DHT22;42154;51.992;5.896;2023-11-21T12:42:52;11.00;99.90
56240;DHT22;42154;51.992;5.896;2023-11-21T12:45:25;11.00;99.90
56240;DHT22;42154;51.992;5.896;2023-11-21T12:47:55;11.00;99.90
56240;DHT22;42154;51.992;5.896;2023-11-21T12:50:26;11.00;99.90
56240;DHT22;42154;51.992;5.896;2023-11-21T12:52:57;11.10;99.90
56240;DHT22;42154;51.992;5.896;2023-11-21T12:55:24;11.00;99.90
56240;DHT22;42154;51.992;5.896;2023-11-21T12:57:55;11.00;99.90
56240;DHT22;42154;51.992;5.896;2023-11-21T13:00:29;11.00;99.90
56240;DHT22;42154;51.992;5.896;2023-11-21T13:02:58;11.10;99.90
56240;DHT22;42154;51.992;5.896;2023-11-21T13:05:32;11.00;99.90
56240;DHT22;42154;51.992;5.896;2023-11-21T13:08:00;11.10;99.90
56240;DHT22;42154;51.992;5.896;2023-11-21T13:10:30;11.00;99.90
56240;DHT22;42154;51.992;5.896;2023-11-21T13:13:00;11.10;99.90
56240;DHT22;42154;51.992;5.896;2023-11-21T13:15:27;11.10;99.90
56240;DHT22;42154;51.992;5.896;2023-11-21T13:17:54;11.10;99.90
56240;DHT22;42154;51.992;5.896;2023-11-21T13:20:20;11.10;99.90
56240;DHT22;42154;51.992;5.896;2023-11-21T13:22:53;11.10;99.90
56240;DHT22;42154;51.992;5.896;2023-11-21T13:25:21;11.00;99.90
56240;DHT22;42154;51.992;5.896;2023-11-21T13:27:47;11.10;99.90
56240;DHT22;42154;51.992;5.896;2023-11-21T13:30:14;11.10;99.90
56240;DHT22;42154;51.992;5.896;2023-11-21T13:32:48;11.10;99.90
56240;DHT22;42154;51.992;5.896;2023-11-21T13:35:17;11.10;99.90
56240;DHT22;42154;51.992;5.896;2023-11-21T13:37:50;11.10;99.90
56240;DHT22;42154;51.992;5.896;2023-11-21T13:40:24;11.10;99.90
56240;DHT22;42154;51.992;5.896;2023-11-21T13:42:56;11.10;99.90
56240;DHT22;42154;51.992;5.896;2023-11-21T13:45:25;11.20;99.90
56240;DHT22;42154;51.992;5.896;2023-11-21T13:47:53;11.20;99.90
56240;DHT22;42154;51.992;5.896;2023-11-21T13:50:25;11.20;99.90
56240;DHT22;42154;51.992;5.896;2023-11-21T13:52:59;11.20;99.90
56240;DHT22;42154;51.992;5.896;2023-11-21T13:55:28;11.20;99.90
56240;DHT22;42154;51.992;5.896;2023-11-21T13:57:54;11.10;99.90
56240;DHT22;42154;51.992;5.896;2023-11-21T14:00:20;11.10;99.90
56240;DHT22;42154;51.992;5.896;2023-11-21T14:03:04;11.10;99.90
56240;DHT22;42154;51.992;5.896;2023-11-21T14:05:34;11.00;99.90
56240;DHT22;42154;51.992;5.896;2023-11-21T14:08:00;10.90;99.90
56240;DHT22;42154;51.992;5.896;2023-11-21T14:10:31;10.80;99.90
56240;DHT22;42154;51.992;5.896;2023-11-21T14:13:06;10.70;99.90
56240;DHT22;42154;51.992;5.896;2023-11-21T14:15:32;10.60;99.90
56240;DHT22;42154;51.992;5.896;2023-11-21T14:18:02;10.60;99.90
56240;DHT22;42154;51.992;5.896;2023-11-21T14:20:33;10.50;99.90
56240;DHT22;42154;51.992;5.896;2023-11-21T14:23:01;10.50;99.90
56240;DHT22;42154;51.992;5.896;2023-11-21T14:25:27;10.50;99.90
56240;DHT22;42154;51.992;5.896;2023-11-21T14:27:53;10.60;99.90
56240;DHT22;42154;51.992;5.896;2023-11-21T14:30:19;10.60;99.90
56240;DHT22;42154;51.992;5.896;2023-11-21T14:32:48;10.60;99.90
56240;DHT22;42154;51.992;5.896;2023-11-21T14:35:14;10.50;99.90
56240;DHT22;42154;51.992;5.896;2023-11-21T14:37:40;10.50;99.90
56240;DHT22;42154;51.992;5.896;2023-11-21T14:40:06;10.50;99.90
56240;DHT22;42154;51.992;5.896;2023-11-21T14:42:33;10.50;99.90
56240;DHT22;42154;51.992;5.896;2023-11-21T14:45:00;10.50;99.90
56240;DHT22;42154;51.992;5.896;2023-11-21T14:47:29;10.40;99.90
56240;DHT22;42154;51.992;5.896;2023-11-21T14:49:55;10.40;99.90
56240;DHT22;42154;51.992;5.896;2023-11-21T14:52:22;10.40;99.90
56240;DHT22;42154;51.992;5.896;2023-11-21T14:55:03;10.40;99.90
56240;DHT22;42154;51.992;5.896;2023-11-21T14:57:45;10.30;99.90
56240;DHT22;42154;51.992;5.896;2023-11-21T15:00:19;10.30;99.90
56240;DHT22;42154;51.992;5.896;2023-11-21T15:03:04;10.20;99.90
56240;DHT22;42154;51.992;5.896;2023-11-21T15:05:30;10.10;99.90
56240;DHT22;42154;51.992;5.896;2023-11-21T15:07:56;10.10;99.90
56240;DHT22;42154;51.992;5.896;2023-11-21T15:10:34;10.10;99.90
56240;DHT22;42154;51.992;5.896;2023-11-21T15:13:13;10.10;99.90
56240;DHT22;42154;51.992;5.896;2023-11-21T15:15:41;10.20;99.90
56240;DHT22;42154;51.992;5.896;2023-11-21T15:18:07;10.00;99.90
56240;DHT22;42154;51.992;5.896;2023-11-21T15:20:33;9.90;99.90
56240;DHT22;42154;51.992;5.896;2023-11-21T15:22:59;9.90;99.90
56240;DHT22;42154;51.992;5.896;2023-11-21T15:25:25;9.80;99.90
56240;DHT22;42154;51.992;5.896;2023-11-21T15:27:51;9.80;99.90
56240;DHT22;42154;51.992;5.896;2023-11-21T15:30:17;9.80;99.90
56240;DHT22;42154;51.992;5.896;2023-11-21T15:32:48;9.70;99.90
56240;DHT22;42154;51.992;5.896;2023-11-21T15:35:14;9.70;99.90
56240;DHT22;42154;51.992;5.896;2023-11-21T15:37:40;9.60;99.90
56240;DHT22;42154;51.992;5.896;2023-11-21T15:40:07;9.60;99.90
56240;DHT22;42154;51.992;5.896;2023-11-21T15:42:34;9.60;99.90
56240;DHT22;42154;51.992;5.896;2023-11-21T15:45:03;9.60;99.90
56240;DHT22;42154;51.992;5.896;2023-11-21T15:47:33;9.60;99.90
56240;DHT22;42154;51.992;5.896;2023-11-21T15:49:58;9.50;99.90
56240;DHT22;42154;51.992;5.896;2023-11-21T15:52:24;9.40;99.90
56240;DHT22;42154;51.992;5.896;2023-11-21T15:54:50;9.40;99.90